Time;durP1;ratioP1;P1;durP2;ratioP2;P2;SDS_P1;SDS_P2;PMS_P1;PMS_P2;Temp;Humidity;BMP_temperature;BMP_pressure;BME280_temperature;BME280_humidity;BME280_pressure;Samples;Min_cycle;Max_cycle;Signal;HPM_P1;HPM_P2
2021/06/04 00:00:35;;;;;;;8.93;5.50;;;16.30;99.90;;;;;;5062179;28;20193;-71
2021/06/04 00:03:16;;;;;;;10.33;5.30;;;16.30;99.90;;;;;;5060807;28;20187;-71
2021/06/04 00:05:48;;;;;;;7.33;5.20;;;16.40;99.90;;;;;;5064348;28;20699;-72
2021/06/04 00:08:18;;;;;;;10.97;5.93;;;16.30;99.90;;;;;;5059799;28;20638;-71
2021/06/04 00:11:01;;;;;;;9.47;6.40;;;16.40;99.90;;;;;;5057520;28;20187;-74
2021/06/04 00:13:33;;;;;;;10.97;5.33;;;16.40;99.90;;;;;;5047013;28;20214;-71
2021/06/04 00:16:11;;;;;;;7.67;4.90;;;16.40;99.90;;;;;;5058226;28;20198;-71
2021/06/04 00:18:40;;;;;;;9.40;5.17;;;16.30;99.90;;;;;;5059963;28;20245;-71
2021/06/04 00:21:17;;;;;;;10.50;5.33;;;16.20;99.90;;;;;;5063122;28;20277;-71
2021/06/04 00:23:53;;;;;;;7.50;5.37;;;16.10;99.90;;;;;;5060897;28;20675;-71
2021/06/04 00:26:23;;;;;;;7.17;5.37;;;16.10;99.90;;;;;;5061333;28;20209;-71
2021/06/04 00:28:59;;;;;;;6.40;5.20;;;16.10;99.90;;;;;;5059992;28;20187;-71
2021/06/04 00:31:27;;;;;;;8.23;5.43;;;16.10;99.90;;;;;;5060745;28;20209;-72
2021/06/04 00:33:54;;;;;;;16.10;5.63;;;16.10;99.90;;;;;;5076367;28;20218;-72
2021/06/04 00:36:26;;;;;;;7.33;5.60;;;16.10;99.90;;;;;;5062480;28;20179;-71
2021/06/04 00:38:59;;;;;;;6.17;5.57;;;16.00;99.90;;;;;;5054690;28;20234;-71
2021/06/04 00:42:04;;;;;;;10.77;5.60;;;16.00;99.90;;;;;;5060827;28;20187;-71
2021/06/04 00:44:34;;;;;;;6.23;5.30;;;16.00;99.90;;;;;;5059059;28;20187;-71
2021/06/04 00:47:01;;;;;;;7.53;5.47;;;16.00;99.90;;;;;;5056471;28;20203;-71
2021/06/04 00:49:27;;;;;;;8.90;5.17;;;15.90;99.90;;;;;;5062013;28;20199;-76
2021/06/04 00:52:09;;;;;;;9.20;5.60;;;15.80;99.90;;;;;;5057027;28;20176;-72
2021/06/04 00:54:36;;;;;;;9.30;5.67;;;15.70;99.90;;;;;;5042370;28;20178;-71
2021/06/04 00:57:04;;;;;;;7.57;5.33;;;15.60;99.90;;;;;;5061157;28;20217;-71
2021/06/04 00:59:38;;;;;;;8.73;5.67;;;15.60;99.90;;;;;;5051839;28;20182;-72
2021/06/04 01:02:22;;;;;;;8.30;5.23;;;15.50;99.90;;;;;;5061621;28;20225;-72
2021/06/04 01:04:48;;;;;;;10.37;5.80;;;15.50;99.90;;;;;;5060939;28;20178;-73
2021/06/04 01:07:50;;;;;;;7.57;5.63;;;15.50;99.90;;;;;;5057158;28;20618;-72
2021/06/04 01:10:42;;;;;;;11.57;5.97;;;15.50;99.90;;;;;;5062018;28;20198;-73
2021/06/04 01:14:01;;;;;;;10.33;5.40;;;15.60;99.90;;;;;;5059393;28;20210;-73
2021/06/04 01:16:57;;;;;;;11.43;5.70;;;15.70;99.90;;;;;;5056662;28;20304;-71
2021/06/04 01:19:56;;;;;;;8.20;5.57;;;15.70;99.90;;;;;;5053484;28;20735;-73
2021/06/04 01:22:45;;;;;;;8.97;5.53;;;15.80;99.90;;;;;;5048954;28;20427;-76
2021/06/04 01:25:34;;;;;;;5.40;4.90;;;15.80;99.90;;;;;;5060346;28;20190;-76
2021/06/04 01:28:24;;;;;;;6.97;5.30;;;15.80;99.90;;;;;;5054761;28;20195;-76
2021/06/04 01:31:15;;;;;;;7.10;4.90;;;15.90;99.90;;;;;;5059668;28;20984;-76
2021/06/04 01:33:49;;;;;;;6.77;4.70;;;15.80;99.90;;;;;;5060540;28;20211;-76
2021/06/04 01:36:31;;;;;;;8.70;4.90;;;15.80;99.90;;;;;;5038112;28;20178;-76
2021/06/04 01:39:12;;;;;;;11.17;4.57;;;15.70;99.90;;;;;;5042831;28;20179;-76
2021/06/04 01:41:42;;;;;;;7.37;4.50;;;15.50;99.90;;;;;;5060846;28;20204;-76
2021/06/04 01:44:40;;;;;;;7.23;4.30;;;15.40;99.90;;;;;;5060238;28;20178;-76
2021/06/04 01:47:27;;;;;;;5.90;4.20;;;15.40;99.90;;;;;;5045114;28;20666;-76
2021/06/04 01:50:01;;;;;;;4.97;4.13;;;15.30;99.90;;;;;;5057390;28;20567;-76
2021/06/04 01:52:38;;;;;;;7.47;4.13;;;15.20;99.90;;;;;;5044135;28;20207;-76
2021/06/04 01:55:25;;;;;;;7.23;3.80;;;15.20;99.90;;;;;;5059274;28;20202;-76
2021/06/04 01:58:13;;;;;;;4.33;3.40;;;15.20;99.90;;;;;;5056234;28;20195;-76
2021/06/04 02:00:59;;;;;;;6.17;3.40;;;15.20;99.90;;;;;;5040018;28;20183;-75
2021/06/04 02:03:26;;;;;;;8.77;3.63;;;15.00;99.90;;;;;;5052416;28;20187;-75
2021/06/04 02:05:57;;;;;;;6.60;3.80;;;15.00;99.90;;;;;;5051805;28;20206;-75
2021/06/04 02:08:40;;;;;;;5.23;3.70;;;15.00;99.90;;;;;;5058358;28;20194;-75
2021/06/04 02:11:10;;;;;;;5.73;3.33;;;15.00;99.90;;;;;;5043040;28;20325;-75
2021/06/04 02:13:41;;;;;;;5.93;3.50;;;15.00;99.90;;;;;;5059955;28;20214;-75
2021/06/04 02:17:02;;;;;;;5.83;3.63;;;15.00;99.90;;;;;;5054078;28;20538;-75
2021/06/04 02:20:09;;;;;;;4.97;3.53;;;15.00;99.90;;;;;;5016184;28;20202;-75
2021/06/04 02:23:00;;;;;;;7.20;3.90;;;15.00;99.90;;;;;;5051188;28;20222;-75
2021/06/04 02:37:10;;;;;;;6.57;3.10;;;14.90;99.90;;;;;;5060611;28;20186;-74
2021/06/04 02:39:44;;;;;;;6.03;3.50;;;14.90;99.90;;;;;;5061539;28;20235;-73
2021/06/04 02:42:32;;;;;;;9.13;3.37;;;14.90;99.90;;;;;;5064385;28;20269;-73
2021/06/04 02:45:16;;;;;;;4.87;3.37;;;14.90;99.90;;;;;;5064145;28;20191;-73
2021/06/04 02:47:48;;;;;;;8.70;3.30;;;14.80;99.90;;;;;;5055083;28;20179;-73
2021/06/04 02:50:25;;;;;;;6.13;2.90;;;14.80;99.90;;;;;;5063658;28;20222;-73
2021/06/04 02:52:53;;;;;;;5.30;3.40;;;14.80;99.90;;;;;;5064319;28;20214;-74
2021/06/04 02:55:31;;;;;;;7.00;3.20;;;14.80;99.90;;;;;;5039167;28;20205;-74
2021/06/04 02:57:57;;;;;;;4.13;3.43;;;14.70;99.90;;;;;;5042977;28;20191;-73
2021/06/04 03:00:39;;;;;;;5.87;3.43;;;14.60;99.90;;;;;;5065330;28;20178;-73
2021/06/04 03:03:07;;;;;;;7.07;3.53;;;14.60;99.90;;;;;;5064254;28;20205;-73
2021/06/04 03:05:38;;;;;;;7.20;3.33;;;14.60;99.90;;;;;;5034278;28;20211;-73
2021/06/04 03:08:06;;;;;;;8.27;3.23;;;14.60;99.90;;;;;;5059009;28;20199;-75
2021/06/04 03:10:42;;;;;;;6.03;3.43;;;14.60;99.90;;;;;;5063134;28;20189;-74
2021/06/04 03:13:22;;;;;;;6.03;3.70;;;14.70;99.90;;;;;;5063514;28;20289;-74
2021/06/04 03:15:54;;;;;;;3.97;3.20;;;14.80;99.90;;;;;;5043573;28;20183;-73
2021/06/04 03:18:33;;;;;;;4.33;3.33;;;14.80;99.90;;;;;;5061029;28;20190;-73
2021/06/04 03:21:31;;;;;;;6.87;3.57;;;14.80;99.90;;;;;;5058975;28;20228;-73
2021/06/04 03:24:00;;;;;;;8.77;3.40;;;14.90;99.90;;;;;;5061726;28;20195;-73
2021/06/04 03:26:31;;;;;;;5.77;3.40;;;15.00;99.90;;;;;;5050933;28;20333;-72
2021/06/04 03:29:04;;;;;;;4.97;3.47;;;14.90;99.90;;;;;;5049121;28;20182;-73
2021/06/04 03:31:35;;;;;;;6.03;3.40;;;15.00;99.90;;;;;;5063539;28;20385;-74
2021/06/04 03:34:04;;;;;;;6.03;3.00;;;15.00;99.90;;;;;;5058332;28;20334;-74
2021/06/04 03:36:35;;;;;;;4.23;3.10;;;15.00;99.90;;;;;;5058289;28;20186;-74
2021/06/04 03:39:05;;;;;;;3.00;2.67;;;15.00;99.90;;;;;;5060426;28;20183;-74
2021/06/04 03:41:36;;;;;;;4.73;2.97;;;15.10;99.90;;;;;;5054416;28;20313;-74
2021/06/04 03:44:09;;;;;;;6.77;3.23;;;15.20;99.90;;;;;;5062909;28;20651;-74
2021/06/04 03:46:36;;;;;;;9.47;3.07;;;15.20;99.90;;;;;;5059904;28;20218;-75
2021/06/04 03:49:05;;;;;;;3.77;3.27;;;15.30;99.90;;;;;;5061291;28;20564;-75
2021/06/04 03:51:38;;;;;;;9.40;3.60;;;15.30;99.90;;;;;;5058699;28;20194;-75
2021/06/04 03:54:07;;;;;;;4.23;3.23;;;15.40;99.90;;;;;;5042226;28;20216;-74
2021/06/04 03:56:35;;;;;;;8.30;3.40;;;15.60;99.90;;;;;;5044411;28;20178;-73
2021/06/04 03:59:04;;;;;;;10.03;3.40;;;15.80;99.90;;;;;;5049098;28;20198;-73
2021/06/04 04:01:43;;;;;;;6.47;3.70;;;16.00;99.90;;;;;;5061135;28;20547;-73
2021/06/04 04:04:18;;;;;;;7.13;3.80;;;16.20;99.90;;;;;;5063599;28;20701;-75
2021/06/04 04:06:44;;;;;;;5.50;3.13;;;16.30;99.90;;;;;;5069142;28;20925;-74
2021/06/04 04:09:12;;;;;;;6.20;3.50;;;16.40;99.90;;;;;;5048255;28;20179;-72
2021/06/04 04:11:41;;;;;;;7.97;3.33;;;16.50;99.90;;;;;;5060526;28;20329;-72
2021/06/04 04:14:09;;;;;;;6.73;3.40;;;16.50;99.90;;;;;;5061882;28;20218;-74
2021/06/04 04:16:36;;;;;;;5.83;3.60;;;16.50;99.90;;;;;;5061419;28;20190;-74
2021/06/04 04:19:03;;;;;;;5.10;3.17;;;16.50;99.90;;;;;;5064067;28;20544;-73
2021/06/04 04:21:30;;;;;;;4.13;3.30;;;16.40;99.90;;;;;;5053359;28;20183;-73
2021/06/04 04:24:10;;;;;;;4.83;3.20;;;16.40;99.90;;;;;;5042450;28;20297;-73
2021/06/04 04:26:38;;;;;;;4.17;3.20;;;16.50;99.90;;;;;;5062901;28;20229;-72
2021/06/04 04:29:06;;;;;;;5.93;3.70;;;16.60;99.90;;;;;;5057315;28;20196;-73
2021/06/04 04:31:38;;;;;;;6.33;3.20;;;16.60;99.90;;;;;;5062332;28;20211;-73
2021/06/04 04:34:06;;;;;;;6.10;3.20;;;16.80;99.90;;;;;;5063656;28;20280;-72
2021/06/04 04:36:46;;;;;;;5.27;2.80;;;17.00;99.90;;;;;;5037053;28;20186;-73
2021/06/04 04:39:21;;;;;;;5.17;2.60;;;17.40;99.90;;;;;;5045210;28;20286;-74
2021/06/04 04:41:49;;;;;;;3.80;2.77;;;17.80;99.90;;;;;;5061944;28;20655;-72
2021/06/04 04:44:27;;;;;;;2.83;2.47;;;18.00;99.90;;;;;;5061185;28;20199;-73
2021/06/04 04:46:54;;;;;;;3.60;2.30;;;18.00;99.90;;;;;;5057584;28;20191;-74
2021/06/04 04:49:20;;;;;;;4.83;2.47;;;17.90;99.90;;;;;;5062351;28;20279;-72
2021/06/04 04:51:47;;;;;;;4.40;2.43;;;18.10;99.90;;;;;;5061170;28;20290;-74
2021/06/04 04:54:14;;;;;;;3.00;2.30;;;18.20;99.90;;;;;;5040364;28;20249;-73
2021/06/04 04:56:41;;;;;;;6.40;2.67;;;18.30;99.90;;;;;;5043898;28;20265;-73
2021/06/04 04:59:10;;;;;;;4.60;2.30;;;18.40;99.90;;;;;;5059649;28;20202;-74
2021/06/04 05:01:38;;;;;;;3.83;2.60;;;18.40;99.90;;;;;;5060080;28;20211;-75
2021/06/04 05:04:05;;;;;;;5.77;2.50;;;18.30;99.90;;;;;;5061494;28;20355;-74
2021/06/04 05:06:32;;;;;;;5.93;2.10;;;18.50;99.90;;;;;;5042835;28;20202;-74
2021/06/04 05:08:58;;;;;;;4.60;1.93;;;18.70;99.90;;;;;;5042812;28;20194;-75
2021/06/04 05:11:25;;;;;;;3.97;1.90;;;18.80;99.90;;;;;;5057156;28;20265;-75
2021/06/04 05:13:51;;;;;;;9.00;2.13;;;18.80;99.90;;;;;;5037402;28;20233;-74
2021/06/04 05:16:18;;;;;;;5.20;2.20;;;19.10;99.90;;;;;;5037643;28;20188;-76
2021/06/04 05:18:45;;;;;;;3.53;1.93;;;19.20;99.90;;;;;;5042206;28;20203;-75
2021/06/04 05:21:16;;;;;;;4.27;2.13;;;19.20;99.90;;;;;;5042399;28;20244;-75
2021/06/04 05:23:42;;;;;;;4.33;1.90;;;19.30;99.90;;;;;;5053276;28;20895;-73
2021/06/04 05:26:09;;;;;;;4.43;2.10;;;19.50;99.90;;;;;;5055949;28;20202;-75
2021/06/04 05:28:38;;;;;;;4.07;1.80;;;19.50;99.90;;;;;;5056646;28;20199;-75
2021/06/04 05:31:11;;;;;;;6.60;2.30;;;19.50;99.90;;;;;;5068519;28;20218;-75
2021/06/04 05:33:41;;;;;;;6.90;2.47;;;19.50;99.90;;;;;;5054444;28;20682;-76
2021/06/04 05:36:14;;;;;;;6.07;1.77;;;19.90;99.90;;;;;;5058207;28;20252;-75
2021/06/04 05:38:41;;;;;;;6.70;1.93;;;20.30;99.90;;;;;;5060056;28;20192;-74
2021/06/04 05:41:09;;;;;;;4.90;1.87;;;20.20;99.90;;;;;;5054675;28;20201;-76
2021/06/04 05:43:39;;;;;;;3.77;1.97;;;20.50;99.90;;;;;;5054454;28;20301;-72
2021/06/04 05:46:09;;;;;;;5.80;2.23;;;20.60;99.90;;;;;;5057461;28;20291;-74
2021/06/04 05:48:37;;;;;;;4.73;1.93;;;20.50;99.90;;;;;;5056230;28;20239;-73
2021/06/04 05:51:15;;;;;;;4.17;2.00;;;20.60;99.90;;;;;;5063591;28;20194;-72
2021/06/04 05:53:43;;;;;;;3.70;2.00;;;20.50;99.90;;;;;;5068748;28;20270;-72
2021/06/04 05:56:13;;;;;;;5.10;2.10;;;20.40;99.90;;;;;;5064575;28;20194;-69
2021/06/04 05:58:39;;;;;;;3.33;2.00;;;20.40;99.90;;;;;;5059606;28;20648;-70
2021/06/04 06:01:11;;;;;;;4.70;2.20;;;20.50;99.90;;;;;;5061940;28;20205;-73
2021/06/04 06:03:38;;;;;;;7.23;2.07;;;20.70;99.90;;;;;;5071153;28;20191;-73
2021/06/04 06:06:06;;;;;;;4.33;2.10;;;20.90;99.90;;;;;;5059108;28;20745;-70
2021/06/04 06:08:33;;;;;;;3.93;1.77;;;21.00;99.90;;;;;;5057540;28;20199;-72
2021/06/04 06:11:01;;;;;;;2.33;1.70;;;21.20;99.90;;;;;;5062305;28;20198;-74
2021/06/04 06:13:28;;;;;;;3.20;1.80;;;21.00;99.90;;;;;;5044271;28;20242;-73
2021/06/04 06:15:56;;;;;;;3.17;1.80;;;21.10;99.90;;;;;;5046553;28;20187;-74
2021/06/04 06:18:25;;;;;;;3.27;1.87;;;21.40;99.90;;;;;;5060169;28;20191;-73
2021/06/04 06:20:53;;;;;;;3.70;2.20;;;21.50;99.90;;;;;;5088455;28;20185;-74
2021/06/04 06:23:25;;;;;;;3.67;2.00;;;21.60;99.90;;;;;;5064641;28;20281;-73
2021/06/04 06:25:56;;;;;;;2.43;1.70;;;21.50;99.90;;;;;;5064312;28;20191;-73
2021/06/04 06:28:29;;;;;;;3.70;1.80;;;21.60;99.90;;;;;;5064965;28;20281;-72
2021/06/04 06:30:56;;;;;;;3.83;1.80;;;21.50;99.90;;;;;;5046487;28;20195;-72
2021/06/04 06:33:24;;;;;;;4.97;1.97;;;21.70;99.90;;;;;;5061107;28;20211;-73
2021/06/04 06:35:59;;;;;;;4.67;2.30;;;21.70;99.90;;;;;;5062561;28;20573;-71
2021/06/04 06:38:28;;;;;;;5.80;1.87;;;21.80;99.90;;;;;;5060730;28;20208;-75
2021/06/04 06:40:59;;;;;;;3.90;2.00;;;22.10;99.90;;;;;;5056444;28;20293;-75
2021/06/04 06:43:31;;;;;;;6.27;2.27;;;22.10;99.90;;;;;;5060759;28;20203;-72
2021/06/04 06:45:58;;;;;;;2.53;1.97;;;22.20;99.90;;;;;;5061248;28;20305;-71
2021/06/04 06:48:25;;;;;;;5.27;2.10;;;22.30;99.90;;;;;;5044877;28;20267;-71
2021/06/04 06:50:54;;;;;;;3.00;2.00;;;22.30;99.90;;;;;;5070583;28;20197;-73
2021/06/04 06:53:23;;;;;;;3.73;2.10;;;22.50;99.90;;;;;;5054615;28;20320;-71
2021/06/04 06:55:52;;;;;;;3.30;2.03;;;22.60;99.90;;;;;;5044429;28;20229;-71
2021/06/04 06:58:19;;;;;;;7.43;2.20;;;22.70;99.90;;;;;;5058415;28;20217;-71
2021/06/04 07:00:50;;;;;;;3.00;1.90;;;22.80;99.90;;;;;;5061283;28;20187;-72
2021/06/04 07:03:23;;;;;;;2.97;2.10;;;22.80;99.90;;;;;;5057040;28;20556;-72
2021/06/04 07:05:52;;;;;;;7.00;2.30;;;22.80;99.90;;;;;;5057273;28;20221;-73
2021/06/04 07:08:19;;;;;;;3.10;2.07;;;22.80;99.90;;;;;;5061493;28;20201;-74
2021/06/04 07:10:46;;;;;;;8.50;2.47;;;23.00;99.90;;;;;;5053407;28;20190;-70
2021/06/04 07:13:16;;;;;;;4.83;2.13;;;23.10;99.90;;;;;;5061498;28;20215;-74
2021/06/04 07:15:43;;;;;;;2.80;1.93;;;23.00;99.90;;;;;;5060040;28;20183;-73
2021/06/04 07:18:11;;;;;;;3.80;2.00;;;23.00;99.90;;;;;;5059773;28;20191;-72
2021/06/04 07:20:38;;;;;;;4.30;2.03;;;23.10;99.90;;;;;;5059708;28;20187;-72
2021/06/04 07:23:10;;;;;;;5.47;2.20;;;23.00;99.90;;;;;;5052965;28;20226;-73
2021/06/04 07:25:42;;;;;;;4.77;2.03;;;23.20;99.90;;;;;;5058478;28;20202;-72
2021/06/04 07:28:11;;;;;;;6.67;2.30;;;23.30;99.90;;;;;;5056893;28;20198;-72
2021/06/04 07:30:44;;;;;;;2.93;1.90;;;23.30;99.90;;;;;;5054477;28;20195;-73
2021/06/04 07:33:23;;;;;;;3.47;1.90;;;23.30;99.90;;;;;;5059812;28;20223;-73
2021/06/04 07:35:53;;;;;;;7.30;2.37;;;23.50;99.90;;;;;;5058032;28;20206;-74
2021/06/04 07:38:21;;;;;;;6.67;2.20;;;23.40;99.90;;;;;;5058985;28;20244;-74
2021/06/04 07:40:48;;;;;;;3.63;2.23;;;23.60;99.90;;;;;;5057641;28;20202;-74
2021/06/04 07:43:22;;;;;;;4.27;2.27;;;23.60;99.90;;;;;;5059749;28;20628;-73
2021/06/04 07:45:48;;;;;;;5.67;2.33;;;23.70;99.90;;;;;;5066652;28;20223;-73
2021/06/04 07:48:19;;;;;;;5.23;2.43;;;23.80;99.90;;;;;;5060189;28;20233;-70
2021/06/04 07:50:47;;;;;;;5.47;2.23;;;23.70;99.90;;;;;;5057226;28;20195;-69
2021/06/04 07:53:17;;;;;;;3.40;2.10;;;23.90;99.90;;;;;;5058816;28;20214;-71
2021/06/04 07:55:45;;;;;;;3.57;2.30;;;23.80;99.90;;;;;;5061811;28;20218;-72
2021/06/04 07:58:12;;;;;;;5.60;2.37;;;24.00;99.90;;;;;;5053764;28;20652;-70
2021/06/04 08:00:38;;;;;;;4.80;2.17;;;24.00;99.90;;;;;;5059076;28;20194;-70
2021/06/04 08:03:08;;;;;;;5.37;2.40;;;24.00;99.90;;;;;;5057159;28;20656;-71
2021/06/04 08:05:38;;;;;;;6.93;2.33;;;24.10;99.90;;;;;;5061457;28;20701;-72
2021/06/04 08:08:09;;;;;;;4.03;2.20;;;24.10;99.90;;;;;;5060528;28;20199;-71
2021/06/04 08:10:40;;;;;;;4.30;2.30;;;24.20;99.90;;;;;;5062620;28;20728;-71
2021/06/04 08:13:14;;;;;;;5.18;2.40;;;24.30;99.90;;;;;;5061579;28;20219;-71
2021/06/04 08:15:49;;;;;;;5.90;2.00;;;24.30;99.90;;;;;;5046411;28;20184;-72
2021/06/04 08:18:17;;;;;;;5.18;2.15;;;24.40;99.90;;;;;;5057564;28;21400;-72
2021/06/04 08:20:46;;;;;;;3.78;2.20;;;24.50;99.90;;;;;;5059651;28;20190;-71
2021/06/04 08:23:23;;;;;;;5.30;2.30;;;24.60;99.90;;;;;;5056662;28;20655;-71
2021/06/04 08:25:57;;;;;;;4.13;2.00;;;24.50;99.90;;;;;;5056092;28;20690;-71
2021/06/04 08:28:27;;;;;;;3.42;1.80;;;24.70;99.90;;;;;;5053832;28;20760;-72
2021/06/04 08:30:54;;;;;;;5.95;2.13;;;24.90;99.90;;;;;;5059108;28;20661;-72
2021/06/04 08:33:27;;;;;;;3.07;2.13;;;24.70;99.90;;;;;;5060436;28;20747;-71
2021/06/04 08:35:54;;;;;;;4.82;2.47;;;24.90;99.90;;;;;;5059015;28;20269;-69
2021/06/04 08:38:21;;;;;;;6.72;2.45;;;24.90;99.90;;;;;;5055221;28;20194;-69
2021/06/04 08:40:48;;;;;;;4.30;2.20;;;24.90;99.90;;;;;;5057696;28;20223;-69
2021/06/04 08:43:18;;;;;;;6.75;2.47;;;25.10;99.90;;;;;;5051101;28;20206;-72
2021/06/04 08:46:00;;;;;;;11.13;2.25;;;24.90;99.90;;;;;;5053954;28;20750;-70
2021/06/04 08:48:39;;;;;;;3.72;2.15;;;25.10;99.90;;;;;;5057974;28;20928;-75
2021/06/04 08:51:28;;;;;;;4.57;2.15;;;25.10;99.90;;;;;;5042738;28;20785;-75
2021/06/04 08:54:04;;;;;;;4.18;2.15;;;25.10;99.90;;;;;;5058230;28;20793;-75
2021/06/04 08:56:56;;;;;;;4.07;2.30;;;25.40;99.90;;;;;;5040548;28;20194;-74
2021/06/04 08:59:25;;;;;;;3.80;2.03;;;25.30;99.90;;;;;;5041386;28;20187;-73
2021/06/04 09:01:58;;;;;;;3.33;1.90;;;25.20;99.90;;;;;;5058023;28;20650;-71
2021/06/04 09:04:41;;;;;;;10.43;2.40;;;25.20;99.90;;;;;;5057538;28;20668;-73
2021/06/04 09:07:27;;;;;;;4.95;2.17;;;25.20;99.90;;;;;;5055612;28;20643;-76
2021/06/04 09:09:59;;;;;;;6.63;2.13;;;25.30;99.90;;;;;;5058882;28;20202;-75
2021/06/04 09:12:38;;;;;;;8.48;2.05;;;25.30;99.90;;;;;;5058042;28;20187;-73
2021/06/04 09:15:07;;;;;;;5.50;2.03;;;25.40;99.90;;;;;;5061349;28;20225;-72
2021/06/04 09:18:01;;;;;;;3.38;1.80;;;25.70;99.90;;;;;;5051059;28;20187;-73
2021/06/04 09:21:01;;;;;;;5.15;2.03;;;25.60;99.90;;;;;;5059587;28;20240;-72
2021/06/04 09:23:42;;;;;;;4.18;2.08;;;25.70;99.90;;;;;;5059867;28;20248;-72
2021/06/04 09:26:13;;;;;;;6.35;2.20;;;25.80;99.90;;;;;;5061582;28;20198;-71
2021/06/04 09:29:09;;;;;;;4.00;1.90;;;25.90;99.90;;;;;;5056535;28;20195;-73
2021/06/04 09:31:49;;;;;;;6.65;2.08;;;26.00;99.90;;;;;;5058024;28;20622;-71
2021/06/04 09:34:45;;;;;;;5.80;2.10;;;26.00;99.90;;;;;;5039833;28;20402;-72
2021/06/04 09:37:20;;;;;;;7.07;2.20;;;26.10;99.90;;;;;;5055826;28;20340;-72
2021/06/04 09:40:07;;;;;;;5.03;1.98;;;26.20;99.90;;;;;;5044404;28;20528;-74
2021/06/04 09:42:34;;;;;;;5.57;2.05;;;26.20;99.90;;;;;;5055544;28;20208;-71
2021/06/04 09:45:14;;;;;;;6.47;1.85;;;26.20;99.90;;;;;;5057762;28;20282;-71
2021/06/04 09:48:05;;;;;;;6.05;1.98;;;25.90;99.90;;;;;;5043998;28;20713;-72
2021/06/04 09:50:47;;;;;;;3.13;1.92;;;25.90;99.90;;;;;;5041133;28;20292;-72
2021/06/04 09:53:19;;;;;;;62.05;3.53;;;25.90;99.90;;;;;;5052992;28;20238;-71
2021/06/04 09:56:12;;;;;;;3.85;2.10;;;26.10;99.90;;;;;;5057252;28;20175;-72
2021/06/04 09:58:54;;;;;;;3.28;1.67;;;26.30;99.90;;;;;;5059268;28;20182;-73
2021/06/04 10:01:44;;;;;;;5.57;1.83;;;26.30;99.90;;;;;;5055482;28;20179;-73
2021/06/04 10:04:30;;;;;;;3.72;1.85;;;26.40;99.90;;;;;;5060586;28;20210;-72
2021/06/04 10:07:05;;;;;;;3.25;1.73;;;26.50;99.90;;;;;;5051793;28;20622;-71
2021/06/04 10:09:41;;;;;;;7.57;1.90;;;26.30;99.90;;;;;;5054634;28;20831;-73
2021/06/04 10:12:41;;;;;;;2.92;1.80;;;26.50;99.90;;;;;;5054562;28;20190;-74
2021/06/04 10:15:25;;;;;;;3.15;1.60;;;26.50;99.90;;;;;;5081018;28;20225;-70
2021/06/04 10:20:26;;;;;;;4.03;1.50;;;26.70;99.90;;;;;;5055714;28;20676;-73
2021/06/04 10:23:04;;;;;;;7.50;1.70;;;26.90;99.90;;;;;;5058760;28;20187;-74
2021/06/04 10:26:03;;;;;;;4.88;2.00;;;26.90;99.90;;;;;;5056888;28;20642;-74
2021/06/04 10:28:46;;;;;;;2.63;1.70;;;27.00;99.90;;;;;;5034882;28;20197;-73
2021/06/04 10:31:18;;;;;;;6.18;1.90;;;27.10;99.90;;;;;;5051660;28;20187;-75
2021/06/04 10:34:02;;;;;;;7.55;1.80;;;27.20;99.90;;;;;;5053594;28;20198;-73
2021/06/04 10:36:38;;;;;;;4.75;1.90;;;26.90;99.90;;;;;;5057755;28;20191;-71
2021/06/04 10:39:54;;;;;;;3.95;1.67;;;26.80;99.90;;;;;;5064921;28;20217;-73
2021/06/04 10:43:09;;;;;;;5.50;1.70;;;26.80;99.90;;;;;;5053843;28;20207;-72
2021/06/04 10:45:48;;;;;;;6.38;1.80;;;26.80;99.90;;;;;;5057869;28;20187;-71
2021/06/04 10:48:38;;;;;;;7.53;1.80;;;26.70;99.90;;;;;;5044702;28;20635;-71
2021/06/04 10:51:50;;;;;;;3.15;1.70;;;26.70;99.90;;;;;;5056339;28;20623;-71
2021/06/04 10:54:48;;;;;;;5.22;1.63;;;26.80;99.90;;;;;;5063699;28;20210;-72
2021/06/04 10:57:36;;;;;;;5.68;2.00;;;26.70;99.90;;;;;;5042394;28;20186;-73
2021/06/04 11:00:24;;;;;;;2.78;1.60;;;26.60;99.90;;;;;;5059006;28;20184;-73
2021/06/04 11:03:15;;;;;;;10.85;2.05;;;26.50;99.90;;;;;;5063070;28;20198;-74
2021/06/04 11:06:03;;;;;;;7.68;1.80;;;26.50;99.90;;;;;;5057453;28;21742;-73
2021/06/04 11:08:47;;;;;;;7.10;1.98;;;26.40;99.90;;;;;;5039162;28;20221;-73
2021/06/04 11:11:39;;;;;;;4.28;2.00;;;26.30;99.90;;;;;;5047737;28;20186;-72
2021/06/04 11:14:30;;;;;;;3.17;1.73;;;26.40;99.90;;;;;;5058865;28;20219;-72
2021/06/04 11:17:41;;;;;;;3.97;1.65;;;26.40;99.90;;;;;;5041558;28;20179;-71
2021/06/04 11:20:11;;;;;;;4.57;1.80;;;26.60;99.90;;;;;;5032538;28;20199;-74
2021/06/04 11:23:20;;;;;;;4.22;1.80;;;26.60;99.90;;;;;;5045238;28;20198;-74
2021/06/04 11:25:56;;;;;;;6.13;1.67;;;26.80;99.90;;;;;;5053238;28;20203;-72
2021/06/04 11:28:51;;;;;;;7.97;2.00;;;26.60;99.90;;;;;;5061044;28;20268;-73
2021/06/04 11:31:28;;;;;;;5.00;1.98;;;26.50;99.90;;;;;;5053797;28;20295;-73
2021/06/04 11:34:02;;;;;;;7.95;1.75;;;26.70;99.90;;;;;;5057138;28;20286;-74
2021/06/04 11:36:32;;;;;;;9.13;2.25;;;26.80;99.90;;;;;;5064167;28;20278;-73
2021/06/04 11:39:14;;;;;;;4.20;1.70;;;26.40;99.90;;;;;;5083059;28;20180;-72
2021/06/04 11:41:53;;;;;;;4.18;1.58;;;26.40;99.90;;;;;;5064518;28;20286;-72
2021/06/04 11:44:42;;;;;;;6.07;2.40;;;26.60;99.90;;;;;;5060267;28;20340;-72
2021/06/04 11:47:18;;;;;;;6.35;1.90;;;26.60;99.90;;;;;;5057226;28;20195;-72
2021/06/04 11:49:56;;;;;;;3.13;1.73;;;26.70;99.90;;;;;;5054357;28;20275;-73
2021/06/04 11:52:37;;;;;;;4.65;1.92;;;26.70;99.90;;;;;;5057887;28;20435;-73
2021/06/04 11:55:30;;;;;;;8.88;1.95;;;26.40;99.90;;;;;;5056608;28;21183;-72
2021/06/04 11:58:17;;;;;;;5.97;1.80;;;26.60;99.90;;;;;;5041974;28;20199;-72
2021/06/04 12:00:52;;;;;;;2.97;1.70;;;26.30;99.90;;;;;;5061909;28;20260;-72
2021/06/04 12:03:32;;;;;;;4.90;2.00;;;26.20;99.90;;;;;;5039119;28;20328;-72
2021/06/04 12:06:25;;;;;;;3.30;1.50;;;26.30;99.90;;;;;;5057923;28;20229;-72
2021/06/04 12:08:56;;;;;;;4.60;1.83;;;26.60;99.90;;;;;;5054947;28;20974;-71
2021/06/04 12:11:22;;;;;;;4.00;1.70;;;26.50;99.90;;;;;;5059044;28;20210;-71
2021/06/04 12:13:49;;;;;;;4.47;1.90;;;26.40;99.90;;;;;;5047297;28;20306;-73
2021/06/04 12:16:21;;;;;;;7.05;1.77;;;26.50;99.90;;;;;;5058023;28;20692;-72
2021/06/04 12:19:24;;;;;;;8.48;1.85;;;26.50;99.90;;;;;;5062542;28;20742;-72
2021/06/04 12:21:51;;;;;;;5.55;1.98;;;26.60;99.90;;;;;;5060728;28;20611;-72
2021/06/04 12:24:20;;;;;;;8.27;2.08;;;26.20;99.90;;;;;;5056774;28;20190;-71
2021/06/04 12:26:57;;;;;;;4.80;1.80;;;26.40;99.90;;;;;;5040102;28;20219;-72
2021/06/04 12:29:24;;;;;;;6.97;2.15;;;26.50;99.90;;;;;;5058931;28;20186;-73
2021/06/04 12:32:11;;;;;;;3.25;1.95;;;26.60;99.90;;;;;;5057125;28;20188;-74
2021/06/04 12:34:38;;;;;;;7.10;2.08;;;26.60;99.90;;;;;;5059961;28;20218;-71
2021/06/04 12:37:15;;;;;;;9.93;2.10;;;26.50;99.90;;;;;;5052760;28;20201;-70
2021/06/04 12:39:52;;;;;;;7.60;2.20;;;26.40;99.90;;;;;;5044289;28;20222;-71
2021/06/04 12:42:25;;;;;;;4.70;1.83;;;26.50;99.90;;;;;;5063104;28;20594;-70
2021/06/04 12:44:59;;;;;;;5.18;1.90;;;26.60;99.90;;;;;;5061954;28;20198;-72
2021/06/04 12:48:09;;;;;;;4.15;1.90;;;26.60;99.90;;;;;;5059441;28;20265;-74
2021/06/04 12:50:42;;;;;;;4.65;2.10;;;26.50;99.90;;;;;;5042921;28;20953;-71
2021/06/04 12:53:26;;;;;;;3.42;1.50;;;26.40;99.90;;;;;;5057512;28;20693;-70
2021/06/04 12:56:27;;;;;;;9.20;1.80;;;26.50;99.90;;;;;;5058385;28;20191;-72
2021/06/04 12:59:13;;;;;;;5.85;2.00;;;26.30;99.90;;;;;;5044910;28;20270;-71
2021/06/04 13:01:54;;;;;;;3.60;1.65;;;26.20;99.90;;;;;;5062218;28;20485;-71
2021/06/04 13:04:41;;;;;;;3.80;1.80;;;26.30;99.90;;;;;;5058876;28;20293;-70
2021/06/04 13:07:34;;;;;;;3.00;1.65;;;26.40;99.90;;;;;;5059881;28;20187;-71
2021/06/04 13:10:21;;;;;;;3.20;1.88;;;26.40;99.90;;;;;;5053715;28;20221;-72
2021/06/04 13:12:53;;;;;;;4.65;1.70;;;26.40;99.90;;;;;;5058217;28;20210;-71
2021/06/04 13:15:28;;;;;;;6.47;1.70;;;26.00;99.90;;;;;;5043581;28;20184;-73
2021/06/04 13:18:03;;;;;;;7.15;1.85;;;26.30;99.90;;;;;;5043741;28;20209;-72
2021/06/04 13:20:34;;;;;;;4.20;1.67;;;26.30;99.90;;;;;;5042749;28;20220;-71
2021/06/04 13:23:26;;;;;;;9.52;1.83;;;26.30;99.90;;;;;;5044668;28;20208;-73
2021/06/04 13:26:39;;;;;;;2.83;1.67;;;26.30;99.90;;;;;;5081731;28;20703;-73
2021/06/04 13:29:33;;;;;;;5.30;1.80;;;26.30;99.90;;;;;;5064017;28;20187;-70
2021/06/04 13:32:20;;;;;;;5.72;2.00;;;26.40;99.90;;;;;;5062135;28;20528;-71
2021/06/04 13:35:02;;;;;;;4.45;1.75;;;26.30;99.90;;;;;;5061860;28;20227;-72
2021/06/04 13:37:37;;;;;;;4.30;1.70;;;26.30;99.90;;;;;;5059607;28;20186;-73
2021/06/04 13:40:07;;;;;;;5.18;2.00;;;26.30;99.90;;;;;;5062482;28;20186;-72
2021/06/04 13:42:43;;;;;;;5.53;1.90;;;26.30;99.90;;;;;;5060148;28;20659;-73
2021/06/04 13:45:16;;;;;;;4.07;1.92;;;26.20;99.90;;;;;;5061412;28;20232;-71
2021/06/04 13:48:15;;;;;;;7.35;2.03;;;26.10;99.90;;;;;;5058012;28;20220;-72